Time;durP1;ratioP1;P1;durP2;ratioP2;P2;SDS_P1;SDS_P2;PMS_P1;PMS_P2;Temp;Humidity;BMP_temperature;BMP_pressure;BME280_temperature;BME280_humidity;BME280_pressure;Samples;Min_cycle;Max_cycle;Signal;HPM_P1;HPM_P2
2022/02/08 00:01:59;;;;;;;4.80;2.17;;;6.50;99.90;;;;;;5007048;28;21016;-41
2022/02/08 00:04:25;;;;;;;7.13;2.47;;;6.50;99.90;;;;;;5075365;28;20461;-40
2022/02/08 00:06:50;;;;;;;11.47;2.97;;;6.50;99.90;;;;;;5087882;28;20410;-40
2022/02/08 00:09:17;;;;;;;6.10;2.73;;;6.40;99.90;;;;;;5074420;28;20503;-40
2022/02/08 00:11:43;;;;;;;9.83;3.10;;;6.50;99.90;;;;;;5087732;28;20191;-39
2022/02/08 00:14:09;;;;;;;7.57;2.63;;;6.40;99.90;;;;;;5087921;28;20466;-40
2022/02/08 00:16:35;;;;;;;8.47;2.63;;;6.60;99.90;;;;;;5088271;28;20422;-39
2022/02/08 00:19:01;;;;;;;12.00;2.97;;;6.30;99.90;;;;;;5079034;28;21228;-42
2022/02/08 00:21:27;;;;;;;10.80;3.13;;;6.50;99.90;;;;;;5083553;28;20192;-40
2022/02/08 00:23:52;;;;;;;9.97;3.30;;;6.50;99.90;;;;;;5088039;28;20188;-41
2022/02/08 00:26:18;;;;;;;7.10;2.73;;;6.60;99.90;;;;;;5086985;28;20483;-39
2022/02/08 00:28:43;;;;;;;8.33;3.13;;;6.60;99.90;;;;;;5087815;28;20199;-39
2022/02/08 00:31:09;;;;;;;6.97;3.07;;;6.30;99.90;;;;;;5086165;28;20195;-40
2022/02/08 00:33:35;;;;;;;9.00;3.40;;;6.50;99.90;;;;;;5083764;28;20216;-40
2022/02/08 00:36:01;;;;;;;12.27;3.20;;;6.70;99.90;;;;;;5083994;28;20188;-39
2022/02/08 00:38:27;;;;;;;10.50;2.83;;;6.60;99.90;;;;;;5087574;28;20184;-40
2022/02/08 00:40:58;;;;;;;9.33;3.17;;;6.50;99.90;;;;;;5085688;28;20508;-39
2022/02/08 00:43:28;;;;;;;7.00;2.73;;;6.60;99.90;;;;;;5088236;28;20497;-40
2022/02/08 00:46:06;;;;;;;9.53;3.47;;;6.60;99.90;;;;;;5086208;28;20442;-41
2022/02/08 00:48:39;;;;;;;7.00;3.10;;;6.70;99.90;;;;;;5082446;28;20454;-40
2022/02/08 00:51:06;;;;;;;12.83;3.30;;;6.70;99.90;;;;;;5081754;28;20461;-40
2022/02/08 00:53:31;;;;;;;7.33;3.20;;;6.50;99.90;;;;;;5087451;28;20957;-40
2022/02/08 00:55:57;;;;;;;13.60;5.70;;;6.40;99.90;;;;;;5087419;28;20438;-42
2022/02/08 00:58:23;;;;;;;11.53;3.20;;;6.60;99.90;;;;;;5087172;28;20684;-40
2022/02/08 01:00:48;;;;;;;8.87;2.87;;;6.50;99.90;;;;;;5086913;28;20195;-40
2022/02/08 01:03:16;;;;;;;6.57;3.00;;;6.40;99.90;;;;;;5084441;28;20194;-40
2022/02/08 01:05:47;;;;;;;8.03;2.77;;;6.30;99.90;;;;;;5080612;28;20219;-41
2022/02/08 01:08:13;;;;;;;8.20;2.90;;;6.70;99.90;;;;;;5086164;28;20823;-41
2022/02/08 01:10:39;;;;;;;8.20;3.50;;;6.60;99.90;;;;;;5086782;28;20684;-40
2022/02/08 01:13:07;;;;;;;10.00;3.60;;;6.40;99.90;;;;;;5087015;28;20473;-43
2022/02/08 01:15:33;;;;;;;11.97;3.30;;;6.30;99.90;;;;;;5087305;28;20483;-40
2022/02/08 01:18:00;;;;;;;10.10;3.07;;;6.60;99.90;;;;;;5087433;28;20437;-40
2022/02/08 01:20:37;;;;;;;8.27;3.43;;;6.60;99.90;;;;;;5074233;28;20743;-44
2022/02/08 01:23:08;;;;;;;10.33;3.90;;;6.40;99.90;;;;;;5087179;28;20427;-39
2022/02/08 01:25:42;;;;;;;9.20;3.30;;;6.60;99.90;;;;;;5086961;28;20458;-41
2022/02/08 01:28:17;;;;;;;10.57;3.93;;;6.50;99.90;;;;;;5086551;28;20758;-40
2022/02/08 01:30:47;;;;;;;10.60;3.20;;;6.60;99.90;;;;;;5086707;28;20812;-39
2022/02/08 01:38:53;;;;;;;12.13;4.80;;;6.60;99.90;;;;;;5086442;28;20568;-41
2022/02/08 01:44:15;;;;;;;11.90;4.50;;;6.80;99.90;;;;;;5087125;28;20429;-40
2022/02/08 01:47:15;;;;;;;14.13;4.00;;;6.60;99.90;;;;;;5087092;28;20874;-41
2022/02/08 01:49:43;;;;;;;15.40;4.27;;;6.60;99.90;;;;;;5074246;28;20439;-39
2022/02/08 01:52:08;;;;;;;15.60;4.80;;;6.70;99.90;;;;;;5086735;28;20430;-42
2022/02/08 01:54:34;;;;;;;17.10;5.00;;;6.40;99.90;;;;;;5089695;28;20490;-45
2022/02/08 01:57:00;;;;;;;15.00;4.73;;;6.50;99.90;;;;;;5090560;28;20216;-40
2022/02/08 01:59:26;;;;;;;10.83;4.80;;;6.40;99.90;;;;;;5091221;28;20197;-42
2022/02/08 02:01:52;;;;;;;10.03;4.27;;;6.20;99.90;;;;;;5090191;28;20654;-40
2022/02/08 02:04:17;;;;;;;11.30;5.23;;;6.70;99.90;;;;;;5083404;28;20192;-40
2022/02/08 02:06:43;;;;;;;11.33;5.50;;;6.60;99.90;;;;;;5083049;28;20917;-40
2022/02/08 02:09:09;;;;;;;11.43;4.70;;;6.60;99.90;;;;;;5090010;28;20211;-43
2022/02/08 02:11:35;;;;;;;14.67;7.07;;;6.60;99.90;;;;;;5089875;28;20521;-40
2022/02/08 02:14:01;;;;;;;10.77;5.43;;;6.70;99.90;;;;;;5090116;28;20256;-43
2022/02/08 02:16:51;;;;;;;13.27;6.57;;;6.60;99.90;;;;;;5090709;28;20196;-39
2022/02/08 02:19:15;;;;;;;13.73;5.80;;;6.50;99.90;;;;;;5068796;28;20572;-40
2022/02/08 02:21:41;;;;;;;11.83;4.77;;;6.60;99.90;;;;;;5083962;28;20506;-40
2022/02/08 02:24:07;;;;;;;8.30;4.87;;;6.50;99.90;;;;;;5090274;28;20208;-42
2022/02/08 02:26:32;;;;;;;10.80;5.23;;;6.20;99.90;;;;;;5089612;28;20554;-43
2022/02/08 02:28:58;;;;;;;12.00;5.93;;;6.40;99.90;;;;;;5090251;28;20196;-40
2022/02/08 02:31:24;;;;;;;11.03;6.17;;;6.50;99.90;;;;;;5071527;28;20450;-40
2022/02/08 02:33:50;;;;;;;9.70;5.37;;;6.40;99.90;;;;;;5086091;28;20220;-39
2022/02/08 02:36:16;;;;;;;10.10;5.73;;;6.40;99.90;;;;;;5084926;28;20271;-40
2022/02/08 02:38:41;;;;;;;13.70;6.30;;;6.40;99.90;;;;;;5089748;28;20529;-40
2022/02/08 02:41:07;;;;;;;9.70;5.73;;;6.40;99.90;;;;;;5089595;28;20197;-41
2022/02/08 02:43:33;;;;;;;10.87;5.70;;;6.40;99.90;;;;;;5089856;28;20184;-40
2022/02/08 02:46:01;;;;;;;13.83;5.87;;;6.20;99.90;;;;;;5089901;28;20222;-39
2022/02/08 02:48:27;;;;;;;10.33;6.30;;;6.30;99.90;;;;;;5089822;28;20433;-40
2022/02/08 02:50:55;;;;;;;7.83;5.80;;;6.50;99.90;;;;;;5077873;28;20509;-45
2022/02/08 02:53:26;;;;;;;10.30;6.27;;;6.50;99.90;;;;;;5089383;28;20987;-40
2022/02/08 02:55:52;;;;;;;12.20;7.00;;;6.50;99.90;;;;;;5089326;28;20499;-39
2022/02/08 02:58:20;;;;;;;9.93;6.83;;;6.50;99.90;;;;;;5089624;28;20423;-43
2022/02/08 03:01:01;;;;;;;12.00;7.43;;;6.40;99.90;;;;;;5088952;28;20567;-40
2022/02/08 03:03:45;;;;;;;10.13;6.97;;;6.30;99.90;;;;;;5089204;28;20430;-40
2022/02/08 03:19:36;;;;;;;9.70;5.67;;;6.30;99.90;;;;;;5082912;28;20534;-39
2022/02/08 03:22:02;;;;;;;11.00;5.80;;;6.40;99.90;;;;;;5084469;28;20999;-39
2022/02/08 03:24:28;;;;;;;6.63;5.07;;;6.50;99.90;;;;;;5088874;28;20188;-40
2022/02/08 03:26:54;;;;;;;8.57;6.30;;;6.50;99.90;;;;;;5087435;28;20410;-41
2022/02/08 03:29:20;;;;;;;8.67;5.10;;;6.40;99.90;;;;;;5089215;28;20189;-42
2022/02/08 03:31:45;;;;;;;8.80;5.70;;;6.40;99.90;;;;;;5088103;28;20689;-39
2022/02/08 03:34:11;;;;;;;8.93;5.23;;;6.50;99.90;;;;;;5086204;28;20501;-40
2022/02/08 03:36:37;;;;;;;7.73;5.50;;;6.40;99.90;;;;;;5083310;28;20256;-42
2022/02/08 03:39:14;;;;;;;8.73;5.73;;;6.40;99.90;;;;;;5088685;28;20184;-40
2022/02/08 03:41:45;;;;;;;7.03;5.43;;;6.50;99.90;;;;;;5088038;28;20207;-42
2022/02/08 03:44:16;;;;;;;9.30;4.83;;;6.50;99.90;;;;;;5088790;28;20433;-40
2022/02/08 03:46:43;;;;;;;6.53;4.60;;;6.70;99.90;;;;;;5088515;28;20426;-43
2022/02/08 03:49:09;;;;;;;10.20;5.73;;;6.50;99.90;;;;;;5087639;28;20418;-40
2022/02/08 03:51:48;;;;;;;5.70;5.10;;;6.40;99.90;;;;;;5079270;28;20781;-40
2022/02/08 03:54:14;;;;;;;9.10;5.77;;;6.40;99.90;;;;;;5088662;28;20961;-39
2022/02/08 03:56:40;;;;;;;8.90;5.70;;;6.50;99.90;;;;;;5088488;28;20438;-40
2022/02/08 03:59:06;;;;;;;8.33;5.30;;;6.60;99.90;;;;;;5088363;28;20919;-40
2022/02/08 04:06:35;;;;;;;7.93;5.90;;;6.70;99.90;;;;;;5078744;28;20445;-39
2022/02/08 04:09:01;;;;;;;8.67;6.07;;;6.60;99.90;;;;;;5088382;28;20430;-40
2022/02/08 04:11:31;;;;;;;7.90;6.03;;;6.50;99.90;;;;;;5088150;28;20904;-41
2022/02/08 04:14:13;;;;;;;7.57;6.47;;;6.70;99.90;;;;;;5088034;28;20215;-39
2022/02/08 04:16:40;;;;;;;7.43;6.03;;;6.70;99.90;;;;;;5087702;28;20897;-42
2022/02/08 04:33:01;;;;;;;11.87;8.93;;;6.70;99.90;;;;;;5087795;28;20519;-40
2022/02/08 04:38:22;;;;;;;13.10;9.27;;;6.70;99.90;;;;;;5081910;28;20464;-40
2022/02/08 04:41:02;;;;;;;10.50;9.27;;;6.70;99.90;;;;;;5084820;28;20489;-40
2022/02/08 04:43:50;;;;;;;12.20;8.63;;;6.70;99.90;;;;;;5087415;28;20450;-40
2022/02/08 04:46:28;;;;;;;12.10;8.47;;;6.70;99.90;;;;;;5088101;28;21055;-42
2022/02/08 04:48:56;;;;;;;12.73;8.17;;;6.80;99.90;;;;;;5087715;28;20418;-41
2022/02/08 04:51:36;;;;;;;11.63;8.70;;;6.70;99.90;;;;;;5075935;28;20445;-40
2022/02/08 05:45:08;;;;;;;13.57;10.80;;;7.20;99.90;;;;;;5091065;28;20422;-39
2022/02/08 05:47:40;;;;;;;14.20;10.50;;;7.10;99.90;;;;;;5090978;28;20484;-41
2022/02/08 05:50:24;;;;;;;15.17;11.17;;;7.20;99.90;;;;;;5085871;28;20476;-39
2022/02/08 05:53:06;;;;;;;12.53;10.80;;;7.10;99.90;;;;;;5085634;28;20545;-40
2022/02/08 05:55:34;;;;;;;15.67;10.60;;;7.30;99.90;;;;;;5091045;28;20434;-40
2022/02/08 05:58:00;;;;;;;13.47;10.40;;;7.30;99.90;;;;;;5090074;28;20728;-39
2022/02/08 06:00:29;;;;;;;13.57;11.27;;;7.40;99.90;;;;;;5090057;28;20418;-41
2022/02/08 06:02:56;;;;;;;11.93;9.77;;;7.60;99.90;;;;;;5090720;28;20864;-40
2022/02/08 06:05:25;;;;;;;13.07;10.07;;;7.60;99.90;;;;;;5087451;28;20875;-40
2022/02/08 06:07:51;;;;;;;16.00;9.40;;;7.30;99.90;;;;;;5083151;28;20617;-39
2022/02/08 06:10:17;;;;;;;11.30;9.60;;;7.50;99.90;;;;;;5090251;28;20426;-41
2022/02/08 06:12:49;;;;;;;10.77;8.70;;;7.60;99.90;;;;;;5086301;28;20201;-39
2022/02/08 06:15:18;;;;;;;11.67;9.83;;;7.30;99.90;;;;;;5085377;28;20434;-40
2022/02/08 06:17:44;;;;;;;11.40;9.20;;;7.30;99.90;;;;;;5089978;28;20594;-40
2022/02/08 06:20:10;;;;;;;9.90;8.87;;;7.70;99.90;;;;;;5088383;28;20450;-40
2022/02/08 06:22:37;;;;;;;10.33;9.00;;;7.70;99.90;;;;;;5081900;28;20184;-43
2022/02/08 06:25:09;;;;;;;13.53;9.67;;;7.70;99.90;;;;;;5090146;28;20422;-40
2022/02/08 06:27:34;;;;;;;12.33;8.97;;;7.50;99.90;;;;;;5088373;28;20425;-40
2022/02/08 06:30:01;;;;;;;9.77;7.73;;;7.70;99.90;;;;;;5089556;28;20960;-39
2022/02/08 06:32:28;;;;;;;9.90;8.80;;;7.50;99.90;;;;;;5090240;28;20243;-40
2022/02/08 06:34:56;;;;;;;10.73;8.57;;;7.70;99.90;;;;;;5089978;28;20457;-40
2022/02/08 06:37:23;;;;;;;10.13;7.80;;;7.60;99.90;;;;;;5071955;28;20442;-41
2022/02/08 06:39:49;;;;;;;13.77;8.20;;;7.60;99.90;;;;;;5084208;28;20419;-40
2022/02/08 06:42:15;;;;;;;8.73;7.83;;;7.70;99.90;;;;;;5089836;28;20414;-39
2022/02/08 06:44:40;;;;;;;11.77;7.87;;;7.70;99.90;;;;;;5089859;28;20176;-40
2022/02/08 06:47:06;;;;;;;8.60;7.70;;;7.70;99.90;;;;;;5090452;28;20253;-39
2022/02/08 06:49:32;;;;;;;9.47;8.47;;;7.70;99.90;;;;;;5085674;28;20203;-39
2022/02/08 06:51:58;;;;;;;9.67;7.90;;;7.90;99.90;;;;;;5076163;28;20431;-41
2022/02/08 06:54:23;;;;;;;9.20;8.30;;;7.70;99.90;;;;;;5085488;28;20805;-40
2022/02/08 06:56:49;;;;;;;11.30;7.83;;;7.60;99.90;;;;;;5089459;28;20215;-41
2022/02/08 06:59:17;;;;;;;10.10;7.80;;;7.70;99.90;;;;;;5081774;28;20192;-40
2022/02/08 07:01:45;;;;;;;8.90;8.00;;;7.70;99.90;;;;;;5080665;28;20184;-40
2022/02/08 07:04:14;;;;;;;11.53;8.50;;;7.90;99.90;;;;;;5083282;28;20438;-39
2022/02/08 07:06:43;;;;;;;11.50;8.50;;;7.80;99.90;;;;;;5081110;28;20430;-40
2022/02/08 07:09:09;;;;;;;11.17;7.03;;;7.70;99.90;;;;;;5086497;28;20842;-42
2022/02/08 07:11:35;;;;;;;7.97;7.17;;;7.80;99.90;;;;;;5088554;28;20427;-41
2022/02/08 07:14:03;;;;;;;8.23;6.60;;;7.80;99.90;;;;;;5089328;28;20469;-39
2022/02/08 07:16:29;;;;;;;9.80;7.90;;;7.80;99.90;;;;;;5089315;28;20442;-40
2022/02/08 07:18:55;;;;;;;8.10;7.30;;;7.90;99.90;;;;;;5089666;28;20419;-41
2022/02/08 07:21:21;;;;;;;9.90;8.23;;;7.70;99.90;;;;;;5081825;28;20216;-42
2022/02/08 07:23:46;;;;;;;9.47;8.27;;;7.70;99.90;;;;;;5087812;28;20222;-40
2022/02/08 07:26:12;;;;;;;9.73;7.73;;;8.00;99.90;;;;;;5086382;28;20193;-41
2022/02/08 07:28:44;;;;;;;9.90;8.47;;;7.80;99.90;;;;;;5089149;28;20287;-40
2022/02/08 07:31:23;;;;;;;9.00;8.07;;;7.80;99.90;;;;;;5088167;28;20214;-40
2022/02/08 07:34:04;;;;;;;13.80;7.97;;;8.00;99.90;;;;;;5087241;28;20530;-41
2022/02/08 07:38:55;;;;;;;13.80;9.17;;;8.00;99.90;;;;;;5087874;28;20647;-41
2022/02/08 07:41:40;;;;;;;10.87;8.73;;;7.80;99.90;;;;;;5087482;28;20278;-42
2022/02/08 07:44:12;;;;;;;9.80;8.50;;;8.00;99.90;;;;;;5086676;28;20528;-42
2022/02/08 07:46:38;;;;;;;12.67;8.63;;;7.90;99.90;;;;;;5087510;28;20503;-41
2022/02/08 07:49:05;;;;;;;12.10;8.73;;;7.90;99.90;;;;;;5088311;28;20419;-42
2022/02/08 07:51:33;;;;;;;10.83;8.40;;;7.90;99.90;;;;;;5081599;28;20454;-40
2022/02/08 07:54:03;;;;;;;11.13;9.30;;;8.10;99.90;;;;;;5082555;28;20564;-40
2022/02/08 07:56:29;;;;;;;8.37;7.50;;;8.10;99.90;;;;;;5088483;28;20442;-42
2022/02/08 07:58:55;;;;;;;13.73;8.83;;;8.10;99.90;;;;;;5081012;28;20529;-41
2022/02/08 08:01:20;;;;;;;10.70;9.00;;;8.10;99.90;;;;;;5085745;28;20204;-42
2022/02/08 08:03:46;;;;;;;10.43;9.27;;;7.90;99.90;;;;;;5086918;28;20176;-39
2022/02/08 08:06:14;;;;;;;13.17;10.00;;;8.00;99.90;;;;;;5070262;28;22344;-42
2022/02/08 08:08:41;;;;;;;13.27;9.17;;;8.30;99.90;;;;;;5081921;28;20176;-40
2022/02/08 08:11:12;;;;;;;9.47;8.53;;;8.00;99.90;;;;;;5087460;28;20415;-41
2022/02/08 08:13:41;;;;;;;12.90;9.23;;;8.10;99.90;;;;;;5087694;28;21104;-40
2022/02/08 08:16:19;;;;;;;12.57;8.47;;;8.20;99.90;;;;;;5088156;28;20892;-40
2022/02/08 08:18:58;;;;;;;11.53;9.20;;;8.20;99.90;;;;;;5086956;28;20873;-40
2022/02/08 08:21:24;;;;;;;9.93;8.70;;;8.20;99.90;;;;;;5084189;28;20530;-39
2022/02/08 08:23:51;;;;;;;11.40;9.33;;;8.30;99.90;;;;;;5083287;28;20773;-40
2022/02/08 08:26:16;;;;;;;10.90;9.43;;;8.20;99.90;;;;;;5086068;28;20431;-40
2022/02/08 08:28:42;;;;;;;16.00;10.83;;;8.30;99.90;;;;;;5081009;28;20430;-40
2022/02/08 08:31:08;;;;;;;12.00;10.70;;;8.20;99.90;;;;;;5081059;28;20263;-43
2022/02/08 08:33:34;;;;;;;15.07;10.70;;;8.00;99.90;;;;;;5085921;28;20546;-40
2022/02/08 08:36:00;;;;;;;14.17;10.73;;;8.10;99.90;;;;;;5085160;28;20196;-41
2022/02/08 08:38:28;;;;;;;12.00;9.77;;;8.20;99.90;;;;;;5076917;28;20487;-41
2022/02/08 08:41:03;;;;;;;13.17;10.70;;;8.30;99.90;;;;;;5086808;28;20433;-40
2022/02/08 08:51:44;;;;;;;13.20;10.57;;;8.20;99.90;;;;;;5083856;28;20431;-42
2022/02/08 08:54:10;;;;;;;14.83;10.63;;;8.50;99.90;;;;;;5083028;28;20478;-41
2022/02/08 08:56:37;;;;;;;16.07;11.63;;;8.30;99.90;;;;;;5087354;28;20438;-40
2022/02/08 08:59:05;;;;;;;17.10;11.60;;;8.40;99.90;;;;;;5087533;28;20510;-40
2022/02/08 09:01:31;;;;;;;15.33;11.30;;;8.40;99.90;;;;;;5086685;28;20421;-40
2022/02/08 09:03:57;;;;;;;15.00;11.57;;;8.40;99.90;;;;;;5087647;28;20516;-41
2022/02/08 09:06:23;;;;;;;18.50;12.07;;;8.40;99.90;;;;;;5085611;28;20883;-40
2022/02/08 09:08:48;;;;;;;15.50;11.93;;;8.50;99.90;;;;;;5081582;28;20446;-40
2022/02/08 09:11:34;;;;;;;13.37;10.00;;;8.60;99.90;;;;;;5086736;28;20188;-40
2022/02/08 09:14:09;;;;;;;15.93;11.40;;;8.50;99.90;;;;;;5087447;28;20196;-43
2022/02/08 09:16:49;;;;;;;15.30;11.30;;;8.50;99.90;;;;;;5087281;28;20450;-40
2022/02/08 09:27:44;;;;;;;15.47;10.87;;;8.70;99.90;;;;;;5085893;28;20418;-41
2022/02/08 09:30:18;;;;;;;12.90;10.30;;;8.60;99.90;;;;;;5086451;28;20995;-41
2022/02/08 09:32:52;;;;;;;13.27;10.60;;;8.80;99.90;;;;;;5087149;28;20767;-40
2022/02/08 09:35:19;;;;;;;17.07;10.47;;;8.70;99.90;;;;;;5087155;28;20517;-40
2022/02/08 09:37:45;;;;;;;15.20;10.70;;;8.90;99.90;;;;;;5076024;28;20431;-40
2022/02/08 09:40:19;;;;;;;15.70;11.13;;;8.70;99.90;;;;;;5085026;28;20465;-42
2022/02/08 09:42:46;;;;;;;14.40;10.27;;;8.80;99.90;;;;;;5085154;28;20432;-43
2022/02/08 09:45:18;;;;;;;15.40;10.47;;;8.70;99.90;;;;;;5087321;28;20463;-40
2022/02/08 09:48:12;;;;;;;13.17;10.10;;;8.70;99.90;;;;;;5087057;28;20521;-40
2022/02/08 09:50:39;;;;;;;14.70;9.83;;;8.80;99.90;;;;;;5086810;28;20476;-42
2022/02/08 09:53:09;;;;;;;13.23;10.10;;;8.70;99.90;;;;;;5077766;28;20509;-42
2022/02/08 09:55:37;;;;;;;15.40;9.70;;;8.90;99.90;;;;;;5086876;28;20533;-40
2022/02/08 09:58:03;;;;;;;15.30;10.20;;;8.70;99.90;;;;;;5086486;28;20465;-40
2022/02/08 10:00:29;;;;;;;11.97;9.30;;;9.00;99.90;;;;;;5086371;28;20438;-40
2022/02/08 10:03:12;;;;;;;10.60;8.50;;;9.20;99.90;;;;;;5086341;28;20434;-40
2022/02/08 10:05:51;;;;;;;10.67;9.57;;;8.90;99.90;;;;;;5084947;28;20190;-42
2022/02/08 10:08:17;;;;;;;11.20;9.10;;;8.90;99.90;;;;;;5075518;28;20476;-43
2022/02/08 10:10:43;;;;;;;12.40;9.10;;;9.30;99.90;;;;;;5085545;28;20434;-40
2022/02/08 10:24:03;;;;;;;14.53;8.37;;;9.30;99.90;;;;;;5080710;28;20931;-41
2022/02/08 10:30:13;;;;;;;12.00;8.10;;;9.20;99.90;;;;;;5078259;28;20559;-40
2022/02/08 10:37:59;;;;;;;15.47;9.07;;;9.10;99.90;;;;;;5026257;28;20437;-40
2022/02/08 10:40:25;;;;;;;9.67;7.37;;;9.20;99.90;;;;;;5064196;28;20427;-40
2022/02/08 10:42:56;;;;;;;11.10;7.40;;;9.20;99.90;;;;;;5090147;28;20426;-40
2022/02/08 10:45:29;;;;;;;8.90;7.47;;;9.30;99.90;;;;;;5089864;28;20212;-40
2022/02/08 10:48:03;;;;;;;10.90;7.37;;;9.40;99.90;;;;;;5089769;28;20423;-41
2022/02/08 10:50:31;;;;;;;9.10;7.20;;;9.40;99.90;;;;;;5089407;28;20751;-43
2022/02/08 10:52:59;;;;;;;9.73;7.00;;;9.40;99.90;;;;;;5086423;28;20454;-40
2022/02/08 10:58:04;;;;;;;8.97;7.27;;;9.40;99.90;;;;;;5089725;28;20467;-41
2022/02/08 11:00:39;;;;;;;8.77;6.57;;;9.50;99.90;;;;;;5089122;28;20923;-40
2022/02/08 11:03:11;;;;;;;10.47;6.90;;;9.50;99.90;;;;;;5076209;28;20830;-40
2022/02/08 11:05:47;;;;;;;8.60;6.00;;;9.40;99.90;;;;;;5089878;28;20805;-40
2022/02/08 11:08:33;;;;;;;9.07;6.20;;;9.50;99.90;;;;;;5080530;28;20450;-40
2022/02/08 11:16:44;;;;;;;9.13;7.00;;;9.60;99.90;;;;;;5089251;28;20804;-40
2022/02/08 11:19:24;;;;;;;8.40;5.97;;;9.70;99.90;;;;;;5089034;28;20426;-40
2022/02/08 11:22:01;;;;;;;9.23;5.83;;;9.60;99.90;;;;;;5088704;28;20422;-40
2022/02/08 11:24:39;;;;;;;11.00;6.30;;;9.60;99.90;;;;;;5079994;28;20446;-40
2022/02/08 11:27:23;;;;;;;11.07;5.50;;;9.70;99.90;;;;;;5087537;28;21033;-40
2022/02/08 11:29:51;;;;;;;7.20;5.43;;;9.70;99.90;;;;;;5088426;28;20427;-41
2022/02/08 11:32:52;;;;;;;9.47;5.40;;;9.70;99.90;;;;;;5088902;28;20422;-40
2022/02/08 11:46:56;;;;;;;6.07;5.10;;;9.70;99.90;;;;;;5089006;28;20517;-40
2022/02/08 11:49:39;;;;;;;9.63;5.67;;;9.80;99.90;;;;;;5088615;28;20434;-43
2022/02/08 11:58:06;;;;;;;6.53;4.93;;;9.70;99.90;;;;;;5085840;28;20525;-42
2022/02/08 12:00:21;;;;;;;12.07;4.97;;;9.70;99.90;;;;;;5077084;28;20440;-42
2022/02/08 12:02:58;;;;;;;6.37;4.57;;;9.70;99.90;;;;;;5088247;28;20422;-41
2022/02/08 12:08:19;;;;;;;5.50;4.10;;;9.70;99.90;;;;;;5057576;28;20441;-40
2022/02/08 12:11:04;;;;;;;9.90;5.17;;;9.80;99.90;;;;;;5086836;28;20450;-44
2022/02/08 12:13:53;;;;;;;7.37;4.43;;;9.90;99.90;;;;;;5087789;28;20465;-42
2022/02/08 12:54:27;;;;;;;9.43;4.13;;;9.90;99.90;;;;;;5078239;28;20517;-41
2022/02/08 12:57:54;;;;;;;3.57;2.27;;;10.10;99.90;;;;;;5082359;28;20500;-40
2022/02/08 14:14:26;;;;;;;2.97;2.20;;;10.30;99.90;;;;;;5090390;28;20481;-42
2022/02/08 14:21:35;;;;;;;6.03;2.20;;;10.20;99.90;;;;;;5089967;28;20455;-40
2022/02/08 14:24:18;;;;;;;2.70;1.80;;;10.20;99.90;;;;;;5085300;28;20451;-42
2022/02/08 14:29:41;;;;;;;5.70;1.93;;;10.10;99.90;;;;;;5089975;28;20445;-41
2022/02/08 14:32:19;;;;;;;3.57;1.97;;;10.20;99.90;;;;;;5090179;28;20474;-40
2022/02/08 15:00:08;;;;;;;3.30;1.93;;;10.50;99.90;;;;;;5089432;28;20422;-40
2022/02/08 15:10:29;;;;;;;6.80;2.17;;;10.20;99.90;;;;;;5073104;28;20443;-41
2022/02/08 15:12:57;;;;;;;3.50;2.13;;;10.20;99.90;;;;;;5089814;28;20473;-40
2022/02/08 15:15:32;;;;;;;3.50;2.43;;;10.30;99.90;;;;;;5089305;28;20426;-42
2022/02/08 15:17:58;;;;;;;2.07;1.87;;;10.30;99.90;;;;;;5089604;28;20440;-40
2022/02/08 15:20:25;;;;;;;5.10;2.30;;;10.30;99.90;;;;;;5088692;28;20426;-42
2022/02/08 15:22:51;;;;;;;2.80;2.10;;;10.30;99.90;;;;;;5088884;28;20642;-41
2022/02/08 15:25:17;;;;;;;2.83;1.90;;;10.10;99.90;;;;;;5079759;28;20434;-43
2022/02/08 15:27:45;;;;;;;3.47;2.30;;;10.10;99.90;;;;;;5082464;28;20960;-41
2022/02/08 15:30:11;;;;;;;4.30;2.40;;;10.30;99.90;;;;;;5088589;28;20422;-42
2022/02/08 15:32:38;;;;;;;6.53;2.50;;;10.10;99.90;;;;;;5089160;28;20430;-41
2022/02/08 15:35:06;;;;;;;2.30;2.10;;;10.20;99.90;;;;;;5088944;28;20430;-45
2022/02/08 15:37:32;;;;;;;3.17;1.77;;;10.30;99.90;;;;;;5088704;28;20932;-42
2022/02/08 15:39:59;;;;;;;4.73;2.50;;;10.20;99.90;;;;;;5085789;28;20449;-43
2022/02/08 15:42:32;;;;;;;3.90;2.30;;;10.30;99.90;;;;;;5086411;28;20426;-41
2022/02/08 15:45:08;;;;;;;2.10;1.90;;;10.20;99.90;;;;;;5088950;28;20430;-41
2022/02/08 15:47:34;;;;;;;2.90;2.00;;;10.20;99.90;;;;;;5088634;28;21111;-41
2022/02/08 15:50:07;;;;;;;5.27;2.20;;;10.10;99.90;;;;;;5088467;28;20454;-41
2022/02/08 15:55:30;;;;;;;4.80;2.27;;;10.10;99.90;;;;;;5079320;28;20457;-41
2022/02/08 16:08:45;;;;;;;7.23;2.00;;;10.10;99.90;;;;;;5076087;28;20431;-40
2022/02/08 16:46:32;;;;;;;5.60;2.10;;;10.20;99.90;;;;;;5087003;28;20566;-42
2022/02/08 16:57:14;;;;;;;2.60;2.33;;;9.90;99.90;;;;;;5077243;28;20716;-40
2022/02/08 16:59:42;;;;;;;3.20;2.20;;;10.00;99.90;;;;;;5086856;28;21071;-41
2022/02/08 17:02:09;;;;;;;4.10;2.30;;;10.10;99.90;;;;;;5087638;28;20445;-40
2022/02/08 17:04:37;;;;;;;3.70;2.40;;;10.10;99.90;;;;;;5087449;28;20541;-40
2022/02/08 17:07:04;;;;;;;2.67;2.23;;;10.20;99.90;;;;;;5087206;28;20505;-41
2022/02/08 17:15:19;;;;;;;3.40;2.30;;;10.00;99.90;;;;;;5087246;28;20462;-41
2022/02/08 17:18:02;;;;;;;3.30;2.10;;;10.00;99.90;;;;;;5074442;28;20434;-41
2022/02/08 17:47:40;;;;;;;5.90;3.40;;;9.90;99.90;;;;;;5090396;28;20425;-43
2022/02/08 17:50:09;;;;;;;3.20;2.83;;;10.20;99.90;;;;;;5088794;28;20904;-42
2022/02/08 17:52:36;;;;;;;5.53;3.47;;;9.90;99.90;;;;;;5089006;28;20928;-42
2022/02/08 17:55:04;;;;;;;3.67;3.30;;;9.90;99.90;;;;;;5083372;28;20860;-40
2022/02/08 17:57:30;;;;;;;5.73;3.77;;;9.90;99.90;;;;;;5083508;28;20434;-43
2022/02/08 17:59:56;;;;;;;4.13;3.73;;;10.00;99.90;;;;;;5090345;28;20422;-41
2022/02/08 18:02:22;;;;;;;3.87;3.50;;;9.90;99.90;;;;;;5090475;28;20185;-41
2022/02/08 18:04:49;;;;;;;3.57;3.23;;;10.00;99.90;;;;;;5090317;28;20430;-40
2022/02/08 18:07:19;;;;;;;5.50;3.80;;;10.00;99.90;;;;;;5089495;28;20188;-40
2022/02/08 18:09:47;;;;;;;4.00;3.60;;;9.90;99.90;;;;;;5088270;28;20928;-43
2022/02/08 18:12:13;;;;;;;4.63;4.23;;;9.90;99.90;;;;;;5078876;28;20807;-40
2022/02/08 18:14:41;;;;;;;5.37;4.43;;;10.00;99.90;;;;;;5089759;28;20980;-45
2022/02/08 18:17:15;;;;;;;8.23;5.17;;;10.00;99.90;;;;;;5090102;28;20442;-40
2022/02/08 18:19:48;;;;;;;5.40;4.87;;;10.10;99.90;;;;;;5088377;28;20587;-40
2022/02/08 18:22:31;;;;;;;5.03;4.40;;;10.00;99.90;;;;;;5089005;28;20458;-40
2022/02/08 18:25:34;;;;;;;6.13;4.20;;;9.90;99.90;;;;;;5089441;28;20506;-43
2022/02/08 18:58:01;;;;;;;9.47;4.37;;;9.80;99.90;;;;;;5082480;28;20975;-40
2022/02/08 19:16:31;;;;;;;4.03;3.60;;;9.80;99.90;;;;;;5088407;28;20229;-43
2022/02/08 19:21:50;;;;;;;5.40;4.43;;;9.80;99.90;;;;;;5088047;28;20919;-40
2022/02/08 19:24:19;;;;;;;7.57;4.50;;;9.90;99.90;;;;;;5088648;28;20785;-43
2022/02/08 19:26:51;;;;;;;5.53;4.37;;;9.80;99.90;;;;;;5083016;28;20517;-40
2022/02/08 19:29:17;;;;;;;4.50;4.07;;;9.80;99.90;;;;;;5086548;28;20870;-40
2022/02/08 19:31:47;;;;;;;8.33;5.07;;;10.00;99.90;;;;;;5084557;28;20432;-41
2022/02/08 19:34:13;;;;;;;5.60;5.00;;;9.80;99.90;;;;;;5088964;28;20789;-41
2022/02/08 19:36:39;;;;;;;7.83;5.00;;;9.80;99.90;;;;;;5087412;28;20418;-41
2022/02/08 19:39:05;;;;;;;5.00;4.50;;;9.80;99.90;;;;;;5085349;28;20804;-41
2022/02/08 19:41:32;;;;;;;6.10;5.50;;;9.70;99.90;;;;;;5082166;28;20499;-42
2022/02/08 19:44:00;;;;;;;7.60;5.23;;;10.00;99.90;;;;;;5086251;28;20434;-45
2022/02/08 19:46:26;;;;;;;5.20;4.37;;;9.90;99.90;;;;;;5085230;28;20430;-43
2022/02/08 19:48:52;;;;;;;8.70;5.17;;;9.90;99.90;;;;;;5084031;28;20426;-40
2022/02/08 19:51:19;;;;;;;5.57;4.47;;;9.90;99.90;;;;;;5085724;28;20445;-42
2022/02/08 19:53:47;;;;;;;4.43;4.03;;;9.80;99.90;;;;;;5085590;28;20507;-41
2022/02/08 19:58:41;;;;;;;5.53;4.20;;;9.90;99.90;;;;;;5084778;28;20850;-40
2022/02/08 20:01:11;;;;;;;3.77;3.40;;;9.80;99.90;;;;;;5083882;28;20442;-40
2022/02/08 20:03:43;;;;;;;3.63;3.23;;;10.10;99.90;;;;;;5085704;28;20454;-40
2022/02/08 20:06:09;;;;;;;4.17;3.27;;;9.80;99.90;;;;;;5085776;28;20465;-40
2022/02/08 20:08:36;;;;;;;5.90;3.70;;;9.90;99.90;;;;;;5085561;28;20466;-44
2022/02/08 20:11:02;;;;;;;4.97;4.03;;;9.90;99.90;;;;;;5086537;28;20434;-40
2022/02/08 20:13:29;;;;;;;6.40;3.50;;;9.70;99.90;;;;;;5087447;28;20820;-40
2022/02/08 20:15:57;;;;;;;6.17;3.80;;;9.80;99.90;;;;;;5086967;28;20483;-44
2022/02/08 20:18:24;;;;;;;7.77;3.93;;;9.80;99.90;;;;;;5087179;28;21153;-45
2022/02/08 20:20:50;;;;;;;4.67;4.00;;;9.80;99.90;;;;;;5086123;28;20789;-41
2022/02/08 20:23:18;;;;;;;4.90;4.00;;;9.80;99.90;;;;;;5085625;28;20499;-40
2022/02/08 20:25:50;;;;;;;5.70;4.30;;;9.90;99.90;;;;;;5082036;28;20777;-40
2022/02/08 20:28:22;;;;;;;5.50;4.03;;;9.80;99.90;;;;;;5060914;28;20445;-41
2022/02/08 20:30:48;;;;;;;6.97;4.13;;;9.70;99.90;;;;;;5083048;28;20422;-41
2022/02/08 20:33:14;;;;;;;5.47;4.30;;;9.50;99.90;;;;;;5086342;28;20469;-40
2022/02/08 20:35:40;;;;;;;4.83;3.97;;;9.70;99.90;;;;;;5086648;28;20741;-43
2022/02/08 20:38:06;;;;;;;5.10;3.80;;;9.70;99.90;;;;;;5086346;28;20192;-41
2022/02/08 20:40:37;;;;;;;5.30;4.20;;;9.70;99.90;;;;;;5083501;28;20417;-44